createdAt,value
2018-10-07T00:00:03.999Z,97.88
2018-10-07T00:01:03.998Z,97.57
2018-10-07T00:02:03.985Z,97.62
2018-10-07T00:03:03.976Z,97.62
2018-10-07T00:04:04.016Z,97.47
2018-10-07T00:05:03.998Z,97.22
2018-10-07T00:06:03.940Z,96.87
2018-10-07T00:07:03.912Z,95.44
2018-10-07T00:08:03.911Z,94.62
2018-10-07T00:09:03.889Z,93.71
2018-10-07T00:10:03.901Z,93.10
2018-10-07T00:11:03.887Z,91.74
2018-10-07T00:12:03.859Z,89.92
2018-10-07T00:13:03.862Z,88.71
2018-10-07T00:14:03.850Z,86.27
2018-10-07T00:15:03.859Z,85.17
2018-10-07T00:16:03.843Z,84.25
2018-10-07T00:17:03.809Z,83.81
2018-10-07T00:18:03.801Z,83.81
2018-10-07T00:19:03.790Z,82.99
2018-10-07T00:20:03.793Z,82.65
2018-10-07T00:21:03.767Z,82.65
2018-10-07T00:22:03.752Z,82.54
2018-10-07T00:23:03.774Z,82.59
2018-10-07T00:24:03.753Z,82.14
2018-10-07T00:25:03.749Z,82.48
2018-10-07T00:26:03.731Z,82.14
2018-10-07T00:27:03.702Z,81.33
2018-10-07T00:28:03.699Z,80.88
2018-10-07T00:29:03.674Z,80.37
2018-10-07T00:30:03.699Z,81.09
2018-10-07T00:31:03.653Z,81.12
2018-10-07T00:32:03.638Z,81.67
2018-10-07T00:33:03.634Z,81.98
2018-10-07T00:34:03.638Z,80.90
2018-10-07T00:35:03.698Z,84.12
2018-10-07T00:36:03.599Z,84.23
2018-10-07T00:37:03.614Z,85.28
2018-10-07T00:38:03.582Z,85.84
2018-10-07T00:39:03.626Z,88.02
2018-10-07T00:40:03.585Z,88.67
2018-10-07T00:41:03.572Z,88.93
2018-10-07T00:42:03.563Z,88.53
2018-10-07T00:43:03.575Z,88.49
2018-10-07T00:44:03.519Z,87.92
2018-10-07T00:45:03.569Z,87.82
2018-10-07T00:46:03.516Z,88.12
2018-10-07T00:47:03.519Z,87.65
2018-10-07T00:48:03.479Z,88.37
2018-10-07T00:49:03.506Z,90.04
2018-10-07T00:50:03.469Z,90.49
2018-10-07T00:51:03.434Z,89.63
2018-10-07T00:52:03.423Z,90.29
2018-10-07T00:53:03.417Z,90.39
2018-10-07T00:54:03.409Z,90.08
2018-10-07T00:55:03.422Z,90.43
2018-10-07T00:56:03.439Z,90.64
2018-10-07T00:57:03.417Z,91.25
2018-10-07T00:58:03.362Z,91.66
2018-10-07T00:59:03.362Z,91.39
2018-10-07T01:00:03.359Z,91.50
2018-10-07T01:01:03.330Z,91.85
2018-10-07T01:02:03.340Z,92.97
2018-10-07T01:03:03.311Z,92.87
2018-10-07T01:04:03.311Z,93.48
2018-10-07T01:05:03.295Z,93.89
2018-10-07T01:06:03.271Z,94.51
2018-10-07T01:07:03.279Z,94.71
2018-10-07T01:08:03.272Z,95.12
2018-10-07T01:09:03.237Z,95.63
2018-10-07T01:10:03.249Z,94.77
2018-10-07T01:11:03.217Z,94.97
2018-10-07T01:12:03.206Z,95.07
2018-10-07T01:13:03.199Z,94.77
2018-10-07T01:14:03.219Z,94.56
2018-10-07T01:15:03.243Z,94.26
2018-10-07T01:16:03.207Z,94.73
2018-10-07T01:17:03.152Z,94.42
2018-10-07T01:18:03.153Z,94.21
2018-10-07T01:19:03.148Z,94.21
2018-10-07T01:20:03.153Z,93.76
2018-10-07T01:21:03.140Z,93.96
2018-10-07T01:22:03.143Z,93.25
2018-10-07T01:23:03.126Z,93.15
2018-10-07T01:24:03.155Z,93.25
2018-10-07T01:25:03.100Z,93.45
2018-10-07T01:26:03.078Z,93.15
2018-10-07T01:27:03.057Z,93.10
2018-10-07T01:28:03.067Z,92.69
2018-10-07T01:29:03.090Z,92.84
2018-10-07T01:30:03.054Z,92.23
2018-10-07T01:31:03.025Z,92.13
2018-10-07T01:32:03.025Z,92.54
2018-10-07T01:33:02.981Z,93.25
2018-10-07T01:34:02.992Z,93.45
2018-10-07T01:35:02.990Z,93.76
2018-10-07T01:36:02.962Z,93.50
2018-10-07T01:37:02.956Z,93.45
2018-10-07T01:38:02.927Z,92.88
2018-10-07T01:39:02.918Z,93.40
2018-10-07T01:40:02.942Z,93.40
2018-10-07T01:41:02.913Z,93.09
2018-10-07T01:42:02.891Z,93.91
2018-10-07T01:43:02.921Z,93.54
2018-10-07T01:44:02.887Z,94.15
2018-10-07T01:45:02.906Z,94.46
2018-10-07T01:46:02.892Z,95.28
2018-10-07T01:47:02.866Z,95.23
2018-10-07T01:48:02.838Z,95.03
2018-10-07T01:49:02.832Z,94.56
2018-10-07T01:50:02.842Z,93.95
2018-10-07T01:51:02.802Z,94.26
2018-10-07T01:52:02.872Z,95.28
2018-10-07T01:53:02.788Z,95.79
2018-10-07T01:54:02.774Z,95.18
2018-10-07T01:55:02.807Z,95.43
2018-10-07T01:56:02.763Z,95.48
2018-10-07T01:57:02.781Z,95.85
2018-10-07T01:58:02.777Z,95.23
2018-10-07T01:59:02.730Z,94.21
2018-10-07T02:00:02.724Z,94.15
2018-10-07T02:01:02.691Z,94.32
2018-10-07T02:02:02.689Z,93.29
2018-10-07T02:03:02.673Z,93.09
2018-10-07T02:04:02.673Z,92.68
2018-10-07T02:05:02.691Z,93.33
2018-10-07T02:06:02.631Z,92.93
2018-10-07T02:07:02.667Z,92.93
2018-10-07T02:08:02.614Z,93.59
2018-10-07T02:09:02.664Z,93.07
2018-10-07T02:10:02.665Z,94.30
2018-10-07T02:11:02.593Z,94.60
2018-10-07T02:12:02.591Z,94.81
2018-10-07T02:13:02.576Z,95.47
2018-10-07T02:14:02.726Z,95.78
2018-10-07T02:15:02.560Z,95.26
2018-10-07T02:16:02.594Z,95.37
2018-10-07T02:17:02.748Z,95.47
2018-10-07T02:18:02.500Z,96.08
2018-10-07T02:19:02.502Z,96.59
2018-10-07T02:20:02.552Z,96.49
2018-10-07T02:21:02.530Z,96.34
2018-10-07T02:22:02.472Z,96.20
2018-10-07T02:23:02.461Z,95.03
2018-10-07T02:24:02.490Z,93.76
2018-10-07T02:25:02.462Z,93.15
2018-10-07T02:26:02.415Z,92.19
2018-10-07T02:27:02.429Z,92.02
2018-10-07T02:28:02.394Z,91.98
2018-10-07T02:29:02.383Z,92.08
2018-10-07T02:30:02.427Z,92.08
2018-10-07T02:31:02.366Z,90.92
2018-10-07T02:32:02.351Z,91.12
2018-10-07T02:33:02.340Z,90.51
2018-10-07T02:34:02.335Z,90.51
2018-10-07T02:35:02.355Z,90.20
2018-10-07T02:36:02.324Z,91.06
2018-10-07T02:37:02.308Z,90.96
2018-10-07T02:38:02.308Z,91.82
2018-10-07T02:39:02.286Z,90.59
2018-10-07T02:40:02.424Z,91.66
2018-10-07T02:41:02.285Z,92.99
2018-10-07T02:42:02.265Z,93.09
2018-10-07T02:43:02.258Z,93.13
2018-10-07T02:44:02.227Z,93.13
2018-10-07T02:45:02.247Z,93.44
2018-10-07T02:46:02.204Z,93.69
2018-10-07T02:47:02.191Z,94.30
2018-10-07T02:48:02.199Z,94.81
2018-10-07T02:49:02.189Z,94.20
2018-10-07T02:50:02.191Z,95.02
2018-10-07T02:51:02.186Z,95.22
2018-10-07T02:52:02.165Z,94.55
2018-10-07T02:53:02.227Z,94.55
2018-10-07T02:54:02.129Z,95.26
2018-10-07T02:55:02.184Z,95.78
2018-10-07T02:56:02.104Z,95.57
2018-10-07T02:57:02.101Z,95.82
2018-10-07T02:58:02.113Z,96.03
2018-10-07T02:59:02.085Z,96.80
2018-10-07T03:00:02.125Z,96.13
2018-10-07T03:01:02.051Z,95.41
2018-10-07T03:02:02.090Z,96.03
2018-10-07T03:03:02.078Z,95.46
2018-10-07T03:04:02.032Z,95.76
2018-10-07T03:05:02.021Z,95.76
2018-10-07T03:06:02.021Z,96.07
2018-10-07T03:07:02.018Z,96.83
2018-10-07T03:08:01.971Z,96.99
2018-10-07T03:09:02.003Z,96.73
2018-10-07T03:10:02.049Z,96.88
2018-10-07T03:11:01.991Z,96.63
2018-10-07T03:12:01.969Z,97.04
2018-10-07T03:13:01.928Z,97.34
2018-10-07T03:14:01.931Z,97.96
2018-10-07T03:15:01.927Z,97.70
2018-10-07T03:16:01.961Z,97.96
2018-10-07T03:17:01.916Z,98.27
2018-10-07T03:18:01.904Z,97.96
2018-10-07T03:19:01.911Z,97.86
2018-10-07T03:20:01.879Z,98.16
2018-10-07T03:21:01.882Z,98.00
2018-10-07T03:22:01.857Z,97.91
2018-10-07T03:23:01.835Z,98.32
2018-10-07T03:24:01.849Z,98.00
2018-10-07T03:25:01.842Z,98.21
2018-10-07T03:26:01.793Z,98.47
2018-10-07T03:27:01.795Z,98.43
2018-10-07T03:28:01.764Z,97.81
2018-10-07T03:29:01.769Z,98.53
2018-10-07T03:30:01.740Z,97.96
2018-10-07T03:31:01.777Z,98.12
2018-10-07T03:32:01.739Z,98.16
2018-10-07T03:33:01.721Z,97.65
2018-10-07T03:34:01.709Z,97.65
2018-10-07T03:35:01.701Z,98.16
2018-10-07T03:36:01.694Z,97.75
2018-10-07T03:37:01.667Z,97.96
2018-10-07T03:38:01.714Z,98.37
2018-10-07T03:39:01.693Z,98.02
2018-10-07T03:40:01.657Z,98.99
2018-10-07T03:41:01.657Z,98.22
2018-10-07T03:42:01.665Z,98.12
2018-10-07T03:43:01.624Z,97.77
2018-10-07T03:44:01.590Z,97.81
2018-10-07T03:45:01.621Z,98.07
2018-10-07T03:46:01.618Z,98.07
2018-10-07T03:47:01.552Z,97.66
2018-10-07T03:48:01.591Z,97.77
2018-10-07T03:49:01.547Z,96.99
2018-10-07T03:50:01.530Z,97.20
2018-10-07T03:51:01.535Z,97.71
2018-10-07T03:52:01.514Z,97.40
2018-10-07T03:53:01.481Z,97.81
2018-10-07T03:54:01.485Z,98.02
2018-10-07T03:55:01.515Z,98.02
2018-10-07T03:56:01.486Z,97.91
2018-10-07T03:57:01.442Z,98.02
2018-10-07T03:58:01.451Z,97.50
2018-10-07T03:59:01.420Z,97.61
2018-10-07T04:00:01.416Z,97.96
2018-10-07T04:01:01.457Z,97.45
2018-10-07T04:02:01.386Z,97.45
2018-10-07T04:03:01.377Z,97.75
2018-10-07T04:04:01.366Z,98.07
2018-10-07T04:05:01.353Z,97.86
2018-10-07T04:06:01.375Z,98.16
2018-10-07T04:07:01.361Z,97.75
2018-10-07T04:08:01.321Z,98.37
2018-10-07T04:09:01.309Z,98.83
2018-10-07T04:10:01.314Z,98.33
2018-10-07T04:11:01.301Z,98.63
2018-10-07T04:12:01.277Z,98.38
2018-10-07T04:13:01.279Z,98.13
2018-10-07T04:14:01.274Z,98.13
2018-10-07T04:15:01.275Z,97.98
2018-10-07T04:16:01.253Z,97.67
2018-10-07T04:17:01.225Z,96.45
2018-10-07T04:18:01.212Z,95.53
2018-10-07T04:19:01.206Z,95.94
2018-10-07T04:20:01.203Z,95.32
2018-10-07T04:21:01.216Z,95.63
2018-10-07T04:22:01.171Z,94.96
2018-10-07T04:23:01.166Z,95.57
2018-10-07T04:24:01.149Z,95.17
2018-10-07T04:25:01.137Z,95.21
2018-10-07T04:26:01.141Z,95.51
2018-10-07T04:27:01.138Z,96.49
2018-10-07T04:28:01.108Z,96.59
2018-10-07T04:29:01.094Z,96.45
2018-10-07T04:30:01.084Z,96.45
2018-10-07T04:31:01.089Z,96.30
2018-10-07T04:32:01.062Z,95.13
2018-10-07T04:33:01.080Z,93.66
2018-10-07T04:34:01.042Z,93.15
2018-10-07T04:35:01.031Z,93.15
2018-10-07T04:36:01.037Z,91.72
2018-10-07T04:37:01.009Z,91.67
2018-10-07T04:38:01.000Z,91.82
2018-10-07T04:39:01.011Z,92.13
2018-10-07T04:40:01.040Z,91.82
2018-10-07T04:41:00.982Z,92.13
2018-10-07T04:42:00.955Z,92.23
2018-10-07T04:43:00.944Z,92.02
2018-10-07T04:44:00.940Z,91.72
2018-10-07T04:45:00.922Z,91.20
2018-10-07T04:46:00.967Z,93.25
2018-10-07T04:47:00.901Z,93.19
2018-10-07T04:48:00.893Z,93.09
2018-10-07T04:49:00.882Z,93.13
2018-10-07T04:50:00.883Z,93.03
2018-10-07T04:51:00.872Z,92.83
2018-10-07T04:52:00.861Z,93.28
2018-10-07T04:53:00.862Z,94.51
2018-10-07T04:54:00.839Z,95.73
2018-10-07T04:55:00.819Z,95.43
2018-10-07T04:56:00.819Z,95.22
2018-10-07T04:57:00.794Z,95.32
2018-10-07T04:58:00.782Z,94.55
2018-10-07T04:59:00.791Z,94.45
2018-10-07T05:00:00.823Z,95.57
2018-10-07T05:01:00.849Z,95.57
2018-10-07T05:02:00.744Z,96.29
2018-10-07T05:03:00.741Z,96.59
2018-10-07T05:04:00.748Z,96.96
2018-10-07T05:05:00.746Z,97.06
2018-10-07T05:06:00.741Z,96.77
2018-10-07T05:07:00.701Z,94.78
2018-10-07T05:08:00.699Z,93.00
2018-10-07T05:09:00.723Z,91.88
2018-10-07T05:10:00.680Z,91.16
2018-10-07T05:11:00.657Z,91.02
2018-10-07T05:12:00.678Z,91.57
2018-10-07T05:13:00.642Z,91.16
2018-10-07T05:14:00.633Z,91.27
2018-10-07T05:15:00.617Z,91.06
2018-10-07T05:16:00.604Z,90.90
2018-10-07T05:17:00.585Z,92.33
2018-10-07T05:18:00.584Z,91.72
2018-10-07T05:19:00.564Z,92.23
2018-10-07T05:20:00.578Z,92.94
2018-10-07T05:21:00.658Z,93.25
2018-10-07T05:22:00.571Z,92.88
2018-10-07T05:23:00.562Z,93.19
2018-10-07T05:24:00.551Z,93.09
2018-10-07T05:25:00.538Z,93.33
2018-10-07T05:26:00.548Z,93.44
2018-10-07T05:27:00.503Z,93.89
2018-10-07T05:28:00.528Z,93.99
2018-10-07T05:29:00.495Z,94.40
2018-10-07T05:30:00.471Z,95.63
2018-10-07T05:31:00.520Z,95.63
2018-10-07T05:32:00.453Z,95.12
2018-10-07T05:33:00.429Z,95.22
2018-10-07T05:34:00.494Z,95.43
2018-10-07T05:35:00.405Z,96.45
2018-10-07T05:36:00.400Z,95.79
2018-10-07T05:37:00.393Z,95.23
2018-10-07T05:38:00.354Z,94.17
2018-10-07T05:39:00.363Z,93.21
2018-10-07T05:40:00.370Z,91.88
2018-10-07T05:41:00.326Z,92.74
2018-10-07T05:42:00.359Z,92.74
2018-10-07T05:43:00.301Z,92.27
2018-10-07T05:44:00.291Z,93.19
2018-10-07T05:45:00.296Z,93.40
2018-10-07T05:46:00.288Z,92.99
2018-10-07T05:47:00.297Z,93.29
2018-10-07T05:48:00.256Z,92.84
2018-10-07T05:49:00.249Z,92.88
2018-10-07T05:50:00.240Z,92.99
2018-10-07T05:51:00.235Z,92.68
2018-10-07T05:52:00.241Z,92.78
2018-10-07T05:53:00.264Z,92.17
2018-10-07T05:54:00.201Z,91.46
2018-10-07T05:55:00.193Z,92.27
2018-10-07T05:56:00.193Z,91.09
2018-10-07T05:57:00.163Z,91.85
2018-10-07T05:58:00.182Z,92.15
2018-10-07T05:59:00.132Z,93.38
2018-10-07T06:00:00.118Z,92.91
2018-10-07T06:01:00.143Z,94.04
2018-10-07T06:02:00.189Z,94.65
2018-10-07T06:03:00.133Z,95.47
2018-10-07T06:04:00.102Z,95.98
2018-10-07T06:05:00.078Z,96.45
2018-10-07T06:06:00.075Z,96.25
2018-10-07T06:07:00.079Z,95.63
2018-10-07T06:08:00.057Z,95.48
2018-10-07T06:09:00.050Z,94.73
2018-10-07T06:10:00.043Z,92.84
2018-10-07T06:11:00.002Z,92.13
2018-10-07T06:12:00.020Z,92.74
2018-10-07T06:13:00.025Z,93.05
2018-10-07T06:14:00.026Z,92.90
2018-10-07T06:15:00.065Z,92.84
2018-10-07T06:16:00.025Z,93.21
2018-10-07T06:16:59.994Z,91.98
2018-10-07T06:17:59.983Z,91.63
2018-10-07T06:18:59.952Z,91.63
2018-10-07T06:19:59.945Z,90.77
2018-10-07T06:20:59.953Z,90.53
2018-10-07T06:21:59.939Z,89.51
2018-10-07T06:22:59.912Z,89.06
2018-10-07T06:23:59.889Z,89.16
2018-10-07T06:24:59.873Z,88.85
2018-10-07T06:25:59.841Z,89.40
2018-10-07T06:26:59.869Z,89.87
2018-10-07T06:27:59.817Z,89.06
2018-10-07T06:28:59.807Z,89.40
2018-10-07T06:29:59.902Z,89.47
2018-10-07T06:30:59.811Z,88.85
2018-10-07T06:31:59.787Z,88.96
2018-10-07T06:32:59.764Z,87.69
2018-10-07T06:33:59.751Z,87.14
2018-10-07T06:34:59.741Z,86.49
2018-10-07T06:35:59.750Z,86.19
2018-10-07T06:36:59.746Z,85.58
2018-10-07T06:37:59.784Z,85.03
2018-10-07T06:38:59.711Z,83.87
2018-10-07T06:39:59.770Z,84.03
2018-10-07T06:40:59.718Z,82.81
2018-10-07T06:41:59.691Z,81.96
2018-10-07T06:42:59.683Z,81.72
2018-10-07T06:43:59.683Z,81.04
2018-10-07T06:44:59.677Z,79.34
2018-10-07T06:45:59.758Z,77.14
2018-10-07T06:46:59.651Z,74.63
2018-10-07T06:47:59.632Z,74.03
2018-10-07T06:48:59.613Z,73.59
2018-10-07T06:49:59.591Z,72.75
2018-10-07T06:50:59.644Z,72.51
2018-10-07T06:51:59.604Z,71.33
2018-10-07T06:52:59.592Z,70.39
2018-10-07T06:53:59.579Z,70.09
2018-10-07T06:54:59.542Z,69.85
2018-10-07T06:55:59.546Z,69.25
2018-10-07T06:56:59.524Z,67.47
2018-10-07T06:57:59.573Z,68.04
2018-10-07T06:58:59.530Z,67.41
2018-10-07T06:59:59.479Z,67.68
2018-10-07T07:00:59.473Z,65.03
2018-10-07T07:01:59.465Z,64.20
2018-10-07T07:02:59.479Z,61.96
2018-10-07T07:03:59.429Z,63.33
2018-10-07T07:04:59.438Z,62.03
2018-10-07T07:05:59.427Z,63.06
2018-10-07T07:06:59.468Z,64.40
2018-10-07T07:07:59.438Z,65.13
2018-10-07T07:08:59.410Z,65.06
2018-10-07T07:09:59.405Z,67.21
2018-10-07T07:10:59.401Z,68.91
2018-10-07T07:11:59.361Z,67.21
2018-10-07T07:12:59.412Z,65.56
2018-10-07T07:13:59.337Z,66.40
2018-10-07T07:14:59.351Z,67.21
2018-10-07T07:15:59.300Z,65.97
2018-10-07T07:16:59.365Z,66.57
2018-10-07T07:17:59.818Z,65.23
2018-10-07T07:18:59.283Z,65.20
2018-10-07T07:19:59.350Z,63.06
2018-10-07T07:20:59.281Z,62.03
2018-10-07T07:21:59.235Z,63.31
2018-10-07T07:22:59.254Z,61.50
2018-10-07T07:23:59.254Z,61.54
2018-10-07T07:24:59.232Z,61.98
2018-10-07T07:25:59.226Z,60.05
2018-10-07T07:26:59.243Z,57.72
2018-10-07T07:27:59.212Z,57.95
2018-10-07T07:28:59.173Z,57.92
2018-10-07T07:29:59.183Z,58.49
2018-10-07T07:30:59.172Z,58.56
2018-10-07T07:31:59.135Z,57.74
2018-10-07T07:32:59.177Z,56.64
2018-10-07T07:33:59.121Z,55.91
2018-10-07T07:34:59.118Z,54.71
2018-10-07T07:35:59.104Z,53.92
2018-10-07T07:36:59.187Z,54.99
2018-10-07T07:37:59.095Z,54.99
2018-10-07T07:38:59.104Z,53.96
2018-10-07T07:39:59.082Z,54.16
2018-10-07T07:40:59.044Z,54.64
2018-10-07T07:41:59.066Z,53.24
2018-10-07T07:42:59.040Z,53.64
2018-10-07T07:43:59.103Z,54.19
2018-10-07T07:44:59.001Z,54.11
2018-10-07T07:45:59.000Z,55.27
2018-10-07T07:46:58.980Z,55.44
2018-10-07T07:47:58.961Z,56.96
2018-10-07T07:48:59.007Z,57.71
2018-10-07T07:49:58.950Z,56.09
2018-10-07T07:50:58.938Z,55.46
2018-10-07T07:51:58.915Z,56.13
2018-10-07T07:52:58.913Z,55.63
2018-10-07T07:53:58.937Z,55.13
2018-10-07T07:54:58.926Z,55.21
2018-10-07T07:55:58.885Z,54.14
2018-10-07T07:56:58.874Z,57.23
2018-10-07T07:57:58.873Z,54.53
2018-10-07T07:58:58.880Z,52.62
2018-10-07T07:59:58.894Z,54.04
2018-10-07T08:00:58.833Z,54.16
2018-10-07T08:01:58.824Z,54.46
2018-10-07T08:02:58.802Z,53.86
2018-10-07T08:03:58.802Z,55.33
2018-10-07T08:04:58.772Z,54.53
2018-10-07T08:05:58.783Z,55.41
2018-10-07T08:06:58.765Z,54.11
2018-10-07T08:07:58.765Z,55.88
2018-10-07T08:08:58.814Z,53.39
2018-10-07T08:09:58.737Z,53.66
2018-10-07T08:10:58.721Z,52.17
2018-10-07T08:11:58.713Z,52.14
2018-10-07T08:12:58.713Z,51.95
2018-10-07T08:13:58.736Z,52.02
2018-10-07T08:14:58.730Z,51.22
2018-10-07T08:15:58.669Z,53.64
2018-10-07T08:16:58.662Z,55.36
2018-10-07T08:17:58.756Z,54.57
2018-10-07T08:18:58.659Z,55.66
2018-10-07T08:19:58.640Z,56.81
2018-10-07T08:20:58.623Z,54.46
2018-10-07T08:21:58.613Z,55.30
2018-10-07T08:22:58.593Z,54.31
2018-10-07T08:23:58.704Z,53.16
2018-10-07T08:24:58.594Z,53.22
2018-10-07T08:25:58.591Z,54.26
2018-10-07T08:26:58.544Z,53.36
2018-10-07T08:27:58.692Z,53.16
2018-10-07T08:28:58.534Z,53.36
2018-10-07T08:29:58.565Z,53.71
2018-10-07T08:30:58.499Z,54.19
2018-10-07T08:31:58.487Z,53.84
2018-10-07T08:32:58.472Z,53.59
2018-10-07T08:33:58.477Z,54.19
2018-10-07T08:34:58.482Z,55.51
2018-10-07T08:35:58.445Z,55.44
2018-10-07T08:36:58.443Z,55.34
2018-10-07T08:37:58.453Z,55.64
2018-10-07T08:38:58.441Z,56.24
2018-10-07T08:39:58.446Z,55.34
2018-10-07T08:40:58.419Z,55.69
2018-10-07T08:41:58.390Z,53.74
2018-10-07T08:42:58.394Z,54.38
2018-10-07T08:43:58.401Z,53.47
2018-10-07T08:44:58.375Z,54.38
2018-10-07T08:45:58.344Z,54.93
2018-10-07T08:46:58.378Z,51.79
2018-10-07T08:47:58.312Z,53.73
2018-10-07T08:48:58.341Z,52.91
2018-10-07T08:49:58.431Z,50.21
2018-10-07T08:50:58.291Z,51.50
2018-10-07T08:51:58.280Z,49.69
2018-10-07T08:52:58.279Z,49.86
2018-10-07T08:53:58.294Z,49.39
2018-10-07T08:54:58.240Z,50.21
2018-10-07T08:55:58.327Z,49.44
2018-10-07T08:56:58.218Z,50.08
2018-10-07T08:57:58.222Z,50.45
2018-10-07T08:58:58.213Z,50.50
2018-10-07T08:59:58.190Z,53.98
2018-10-07T09:00:58.173Z,53.39
2018-10-07T09:01:58.248Z,53.49
2018-10-07T09:02:58.157Z,51.65
2018-10-07T09:03:58.157Z,51.62
2018-10-07T09:04:58.147Z,50.53
2018-10-07T09:05:58.138Z,50.43
2018-10-07T09:06:58.113Z,51.15
2018-10-07T09:07:58.107Z,54.03
2018-10-07T09:08:58.198Z,51.89
2018-10-07T09:09:58.201Z,51.12
2018-10-07T09:10:58.070Z,52.34
2018-10-07T09:11:58.062Z,52.29
2018-10-07T09:12:58.170Z,52.91
2018-10-07T09:13:58.315Z,52.86
2018-10-07T09:14:58.028Z,53.04
2018-10-07T09:15:58.015Z,51.35
2018-10-07T09:16:58.519Z,51.54
2018-10-07T09:17:58.137Z,51.28
2018-10-07T09:18:58.000Z,52.37
2018-10-07T09:19:57.975Z,53.36
2018-10-07T09:20:58.064Z,54.28
2018-10-07T09:21:57.973Z,54.40
2018-10-07T09:22:57.946Z,52.67
2018-10-07T09:23:57.976Z,55.77
2018-10-07T09:24:57.923Z,54.35
2018-10-07T09:25:57.926Z,53.70
2018-10-07T09:26:58.007Z,51.52
2018-10-07T09:27:57.946Z,54.85
2018-10-07T09:28:57.893Z,53.64
2018-10-07T09:29:57.891Z,54.97
2018-10-07T09:30:57.913Z,53.33
2018-10-07T09:31:57.844Z,53.91
2018-10-07T09:32:57.963Z,52.56
2018-10-07T09:33:57.843Z,51.92
2018-10-07T09:34:57.812Z,52.81
2018-10-07T09:35:57.809Z,50.31
2018-10-07T09:36:57.809Z,51.37
2018-10-07T09:37:57.778Z,49.62
2018-10-07T09:38:57.791Z,50.56
2018-10-07T09:39:57.859Z,50.38
2018-10-07T09:40:57.750Z,51.54
2018-10-07T09:41:57.739Z,49.59
2018-10-07T09:42:57.734Z,50.09
2018-10-07T09:43:57.745Z,49.81
2018-10-07T09:44:57.744Z,49.76
2018-10-07T09:45:57.694Z,51.67
2018-10-07T09:46:57.709Z,51.45
2018-10-07T09:47:57.674Z,49.64
2018-10-07T09:48:57.688Z,50.88
2018-10-07T09:49:57.674Z,49.37
2018-10-07T09:50:57.647Z,49.37
2018-10-07T09:51:57.637Z,50.36
2018-10-07T09:52:57.911Z,49.64
2018-10-07T09:53:57.630Z,50.56
2018-10-07T09:54:57.614Z,51.77
2018-10-07T09:55:57.609Z,51.94
2018-10-07T09:56:57.592Z,51.40
2018-10-07T09:57:57.595Z,51.42
2018-10-07T09:58:57.576Z,49.54
2018-10-07T09:59:57.553Z,51.32
2018-10-07T10:00:57.555Z,50.51
2018-10-07T10:01:57.534Z,50.09
2018-10-07T10:02:57.523Z,49.77
2018-10-07T10:03:57.600Z,45.98
2018-10-07T10:04:57.529Z,48.16
2018-10-07T10:05:57.501Z,46.28
2018-10-07T10:06:57.528Z,46.28
2018-10-07T10:07:57.497Z,47.29
2018-10-07T10:08:57.471Z,48.53
2018-10-07T10:09:57.448Z,50.53
2018-10-07T10:10:57.636Z,49.99
2018-10-07T10:11:57.429Z,50.43
2018-10-07T10:12:57.415Z,49.64
2018-10-07T10:13:57.421Z,45.90
2018-10-07T10:14:57.404Z,48.23
2018-10-07T10:15:57.410Z,49.76
2018-10-07T10:16:57.374Z,50.48
2018-10-07T10:17:57.375Z,50.26
2018-10-07T10:18:57.371Z,48.45
2018-10-07T10:19:57.390Z,49.76
2018-10-07T10:20:57.334Z,50.65
2018-10-07T10:21:57.331Z,51.47
2018-10-07T10:22:57.390Z,50.16
2018-10-07T10:23:57.316Z,51.45
2018-10-07T10:24:57.297Z,52.19
2018-10-07T10:25:57.293Z,48.58
2018-10-07T10:26:57.305Z,48.50
2018-10-07T10:27:57.265Z,50.63
2018-10-07T10:28:57.271Z,49.01
2018-10-07T10:29:57.250Z,47.32
2018-10-07T10:30:57.236Z,46.85
2018-10-07T10:31:57.224Z,47.46
2018-10-07T10:32:57.216Z,49.86
2018-10-07T10:33:57.250Z,52.27
2018-10-07T10:34:57.194Z,54.06
2018-10-07T10:35:57.201Z,55.62
2018-10-07T10:36:57.309Z,56.21
2018-10-07T10:37:57.162Z,55.26
2018-10-07T10:38:57.173Z,53.06
2018-10-07T10:39:57.188Z,53.78
2018-10-07T10:40:57.132Z,53.84
2018-10-07T10:41:57.122Z,55.41
2018-10-07T10:42:57.110Z,55.31
2018-10-07T10:43:57.115Z,56.90
2018-10-07T10:44:57.104Z,56.33
2018-10-07T10:45:57.092Z,58.92
2018-10-07T10:46:57.180Z,60.22
2018-10-07T10:47:57.076Z,56.03
2018-10-07T10:48:57.065Z,57.35
2018-10-07T10:49:57.036Z,57.56
2018-10-07T10:50:57.029Z,56.36
2018-10-07T10:51:57.021Z,55.93
2018-10-07T10:52:57.030Z,57.00
2018-10-07T10:53:57.030Z,55.08
2018-10-07T10:54:57.008Z,54.21
2018-10-07T10:55:56.985Z,55.06
2018-10-07T10:56:56.976Z,56.46
2018-10-07T10:57:57.007Z,55.58
2018-10-07T10:58:56.942Z,56.88
2018-10-07T10:59:56.959Z,56.01
2018-10-07T11:00:56.993Z,57.04
2018-10-07T11:01:56.916Z,57.61
2018-10-07T11:02:56.898Z,57.04
2018-10-07T11:03:56.906Z,57.41
2018-10-07T11:04:56.930Z,58.81
2018-10-07T11:05:56.878Z,59.31
2018-10-07T11:06:56.859Z,59.18
2018-10-07T11:07:56.850Z,57.09
2018-10-07T11:08:56.879Z,57.14
2018-10-07T11:09:57.486Z,58.17
2018-10-07T11:10:56.855Z,58.76
2018-10-07T11:11:56.820Z,59.27
2018-10-07T11:12:56.816Z,57.67
2018-10-07T11:13:56.986Z,58.89
2018-10-07T11:14:56.810Z,59.22
2018-10-07T11:15:56.976Z,59.65
2018-10-07T11:16:56.755Z,60.65
2018-10-07T11:17:56.744Z,61.68
2018-10-07T11:18:56.761Z,60.68
2018-10-07T11:19:56.785Z,60.68
2018-10-07T11:20:56.730Z,60.78
2018-10-07T11:21:56.708Z,60.58
2018-10-07T11:22:56.691Z,60.95
2018-10-07T11:23:57.304Z,59.75
2018-10-07T11:24:56.705Z,60.15
2018-10-07T11:25:56.657Z,59.65
2018-10-07T11:26:56.654Z,60.35
2018-10-07T11:27:56.641Z,59.86
2018-10-07T11:28:56.628Z,58.94
2018-10-07T11:29:56.642Z,57.31
2018-10-07T11:30:56.659Z,57.11
2018-10-07T11:31:56.686Z,56.66
2018-10-07T11:32:56.599Z,56.16
2018-10-07T11:33:56.587Z,56.26
2018-10-07T11:34:56.658Z,55.66
2018-10-07T11:35:56.565Z,55.46
2018-10-07T11:36:56.546Z,54.66
2018-10-07T11:37:56.530Z,55.39
2018-10-07T11:38:56.527Z,57.51
2018-10-07T11:39:56.527Z,56.84
2018-10-07T11:40:56.578Z,57.51
2018-10-07T11:41:56.517Z,57.58
2018-10-07T11:42:56.475Z,56.84
2018-10-07T11:43:56.556Z,57.67
2018-10-07T11:44:56.453Z,58.14
2018-10-07T11:45:56.465Z,57.44
2018-10-07T11:46:56.441Z,57.87
2018-10-07T11:47:56.439Z,57.64
2018-10-07T11:48:56.420Z,57.54
2018-10-07T11:49:56.410Z,57.26
2018-10-07T11:50:56.412Z,57.64
2018-10-07T11:51:56.386Z,58.54
2018-10-07T11:52:56.474Z,57.91
2018-10-07T11:53:56.363Z,57.31
2018-10-07T11:54:56.347Z,57.24
2018-10-07T11:55:56.356Z,57.46
2018-10-07T11:56:56.331Z,57.67
2018-10-07T11:57:56.326Z,57.79
2018-10-07T11:58:56.310Z,59.72
2018-10-07T11:59:56.308Z,58.25
2018-10-07T12:00:56.301Z,58.65
2018-10-07T12:01:56.282Z,59.45
2018-10-07T12:02:56.266Z,59.05
2018-10-07T12:03:56.256Z,58.98
2018-10-07T12:04:56.245Z,60.25
2018-10-07T12:05:56.258Z,58.78
2018-10-07T12:06:56.225Z,58.87
2018-10-07T12:07:56.221Z,59.15
2018-10-07T12:08:56.203Z,57.95
2018-10-07T12:09:56.193Z,57.29
2018-10-07T12:10:56.196Z,57.59
2018-10-07T12:11:56.229Z,57.67
2018-10-07T12:12:56.180Z,56.11
2018-10-07T12:13:56.245Z,56.14
2018-10-07T12:14:56.189Z,56.21
2018-10-07T12:15:56.139Z,55.32
2018-10-07T12:16:56.499Z,55.49
2018-10-07T12:17:56.107Z,55.58
2018-10-07T12:18:56.095Z,55.19
2018-10-07T12:19:56.088Z,55.79
2018-10-07T12:20:56.085Z,55.56
2018-10-07T12:21:56.065Z,54.36
2018-10-07T12:22:56.060Z,56.96
2018-10-07T12:23:56.063Z,55.04
2018-10-07T12:24:56.034Z,56.46
2018-10-07T12:25:56.056Z,55.46
2018-10-07T12:26:56.062Z,55.86
2018-10-07T12:27:56.009Z,56.13
2018-10-07T12:28:56.065Z,53.89
2018-10-07T12:29:55.979Z,53.86
2018-10-07T12:30:55.972Z,54.39
2018-10-07T12:31:55.984Z,56.29
2018-10-07T12:32:55.946Z,55.19
2018-10-07T12:33:55.932Z,58.08
2018-10-07T12:34:55.927Z,55.19
2018-10-07T12:35:55.927Z,55.91
2018-10-07T12:36:55.916Z,56.91
2018-10-07T12:37:55.890Z,56.81
2018-10-07T12:38:55.903Z,56.94
2018-10-07T12:39:55.870Z,57.51
2018-10-07T12:40:55.857Z,58.51
2018-10-07T12:41:55.882Z,60.50
2018-10-07T12:42:55.840Z,59.01
2018-10-07T12:43:55.827Z,59.11
2018-10-07T12:44:55.816Z,59.21
2018-10-07T12:45:55.807Z,58.51
2018-10-07T12:46:55.805Z,57.81
2018-10-07T12:47:55.786Z,58.54
2018-10-07T12:48:55.783Z,58.94
2018-10-07T12:49:55.770Z,57.14
2018-10-07T12:50:55.752Z,57.67
2018-10-07T12:51:55.762Z,58.73